createdAt,value
2023-04-26T00:02:18.318Z,33.53
2023-04-26T00:04:47.302Z,24.37
2023-04-26T00:07:16.561Z,18.37
2023-04-26T00:09:44.824Z,27.07
2023-04-26T00:12:12.863Z,19.90
2023-04-26T00:14:40.673Z,29.23
2023-04-26T00:17:08.412Z,35.43
2023-04-26T00:19:38.565Z,49.00
2023-04-26T00:22:06.616Z,31.60
2023-04-26T00:24:34.535Z,50.33
2023-04-26T00:27:05.307Z,44.47
2023-04-26T00:29:33.024Z,34.97
2023-04-26T00:32:00.954Z,22.93
2023-04-26T00:34:33.526Z,38.13
2023-04-26T00:37:03.397Z,26.53
2023-04-26T00:39:31.443Z,27.97
2023-04-26T00:41:59.319Z,25.63
2023-04-26T00:44:27.055Z,23.03
2023-04-26T00:46:55.821Z,20.07
2023-04-26T00:49:25.930Z,9.73
2023-04-26T00:51:54.072Z,8.13
2023-04-26T00:54:23.469Z,6.93
2023-04-26T00:56:53.220Z,5.97
2023-04-26T00:59:21.572Z,7.70
2023-04-26T01:01:49.564Z,6.17
2023-04-26T01:04:18.236Z,5.20
2023-04-26T01:06:46.959Z,8.30
2023-04-26T01:09:15.526Z,6.53
2023-04-26T01:11:45.636Z,4.97
2023-04-26T01:14:14.106Z,5.03
2023-04-26T01:16:41.937Z,4.27
2023-04-26T01:19:12.547Z,6.90
2023-04-26T01:21:41.075Z,4.27
2023-04-26T01:24:10.665Z,5.87
2023-04-26T01:26:43.972Z,6.03
2023-04-26T01:29:16.189Z,5.87
2023-04-26T01:31:44.138Z,7.10
2023-04-26T01:34:11.929Z,8.47
2023-04-26T01:36:39.791Z,10.60
2023-04-26T01:39:09.209Z,10.13
2023-04-26T01:41:38.611Z,8.23
2023-04-26T01:44:06.618Z,6.73
2023-04-26T01:46:34.522Z,7.50
2023-04-26T01:49:02.304Z,4.63
2023-04-26T01:51:29.973Z,8.33
2023-04-26T01:53:57.662Z,9.73
2023-04-26T01:56:25.662Z,10.13
2023-04-26T01:58:56.265Z,9.03
2023-04-26T02:01:24.262Z,6.53
2023-04-26T02:03:52.150Z,8.43
2023-04-26T02:06:19.856Z,11.13
2023-04-26T02:08:47.661Z,16.07
2023-04-26T02:11:15.338Z,13.00
2023-04-26T02:13:43.272Z,10.87
2023-04-26T02:16:12.416Z,31.80
2023-04-26T02:18:41.675Z,12.30
2023-04-26T02:21:10.095Z,15.03
2023-04-26T02:23:37.805Z,14.17
2023-04-26T02:26:05.985Z,10.23
2023-04-26T02:28:33.689Z,11.27
2023-04-26T02:31:03.155Z,6.87
2023-04-26T02:33:32.306Z,14.33
2023-04-26T02:36:00.126Z,16.47
2023-04-26T02:38:28.012Z,22.40
2023-04-26T02:40:59.771Z,25.37
2023-04-26T02:43:27.718Z,18.07
2023-04-26T02:45:55.577Z,15.33
2023-04-26T02:48:23.296Z,11.70
2023-04-26T02:50:52.567Z,18.90
2023-04-26T02:53:20.836Z,15.70
2023-04-26T02:55:48.599Z,12.73
2023-04-26T02:58:17.394Z,7.77
2023-04-26T03:00:48.316Z,6.73
2023-04-26T03:03:16.765Z,8.83
2023-04-26T03:05:44.732Z,9.73
2023-04-26T03:08:13.732Z,6.83
2023-04-26T03:10:41.429Z,10.13
2023-04-26T03:13:09.280Z,7.40
2023-04-26T03:15:36.999Z,6.07
2023-04-26T03:18:04.917Z,6.47
2023-04-26T03:20:32.738Z,4.53
2023-04-26T03:23:00.437Z,9.70
2023-04-26T03:25:29.589Z,10.17
2023-04-26T03:27:57.395Z,10.13
2023-04-26T03:30:25.078Z,5.20
2023-04-26T03:32:53.808Z,7.93
2023-04-26T03:35:21.822Z,7.50
2023-04-26T03:37:51.166Z,7.33
2023-04-26T03:40:20.385Z,8.13
2023-04-26T03:42:49.478Z,10.63
2023-04-26T03:45:17.246Z,12.27
2023-04-26T03:47:44.974Z,10.70
2023-04-26T03:50:13.118Z,6.63
2023-04-26T03:52:40.926Z,3.57
2023-04-26T03:55:11.820Z,6.97
2023-04-26T03:57:39.622Z,7.27
2023-04-26T04:00:12.497Z,11.27
2023-04-26T04:02:40.498Z,11.93
2023-04-26T04:05:09.239Z,5.93
2023-04-26T04:07:37.449Z,10.00
2023-04-26T04:10:05.638Z,10.00
2023-04-26T04:12:33.329Z,7.13
2023-04-26T04:15:01.321Z,9.87
2023-04-26T04:17:30.475Z,11.33
2023-04-26T04:19:58.297Z,7.60
2023-04-26T04:22:26.138Z,13.23
2023-04-26T04:24:54.380Z,6.77
2023-04-26T04:27:22.735Z,5.50
2023-04-26T04:29:50.430Z,8.47
2023-04-26T04:32:18.713Z,7.70
2023-04-26T04:34:49.484Z,5.83
2023-04-26T04:37:18.164Z,4.27
2023-04-26T04:39:46.195Z,8.73
2023-04-26T04:42:14.041Z,9.20
2023-04-26T04:44:43.051Z,6.73
2023-04-26T04:47:10.840Z,9.07
2023-04-26T04:49:38.707Z,8.40
2023-04-26T04:52:07.978Z,9.73
2023-04-26T04:54:35.789Z,5.83
2023-04-26T04:57:04.040Z,7.67
2023-04-26T04:59:33.254Z,8.87
2023-04-26T05:02:01.637Z,10.83
2023-04-26T05:04:29.560Z,10.13
2023-04-26T05:06:57.586Z,14.03
2023-04-26T05:09:27.585Z,16.07
2023-04-26T05:11:55.305Z,8.17
2023-04-26T05:14:23.108Z,8.23
2023-04-26T05:16:51.051Z,10.63
2023-04-26T05:19:18.841Z,19.17
2023-04-26T05:21:46.650Z,23.17
2023-04-26T05:24:14.349Z,19.50
2023-04-26T05:26:43.593Z,16.53
2023-04-26T05:29:11.408Z,27.97
2023-04-26T05:31:39.267Z,26.73
2023-04-26T05:34:07.145Z,23.17
2023-04-26T05:36:35.568Z,32.27
2023-04-26T05:39:05.690Z,41.87
2023-04-26T05:41:33.489Z,38.73
2023-04-26T05:44:02.578Z,38.87
2023-04-26T05:46:30.556Z,32.90
2023-04-26T05:48:58.274Z,22.70
2023-04-26T05:51:26.290Z,26.33
2023-04-26T05:53:54.886Z,31.23
2023-04-26T05:56:24.059Z,20.10
2023-04-26T05:58:51.838Z,35.20
2023-04-26T06:01:21.131Z,28.03
2023-04-26T06:03:49.413Z,42.20
2023-04-26T06:06:18.492Z,24.23
2023-04-26T06:08:46.555Z,33.77
2023-04-26T06:11:14.386Z,19.43
2023-04-26T06:13:42.594Z,12.13
2023-04-26T06:16:10.452Z,9.60
2023-04-26T06:18:39.587Z,9.80
2023-04-26T06:21:08.010Z,11.33
2023-04-26T06:23:35.743Z,9.53
2023-04-26T06:26:03.466Z,9.03
2023-04-26T06:28:31.555Z,6.43
2023-04-26T06:30:59.572Z,6.30
2023-04-26T06:33:27.579Z,10.37
2023-04-26T06:35:56.642Z,6.43
2023-04-26T06:38:24.441Z,10.57
2023-04-26T06:40:52.225Z,12.20
2023-04-26T06:43:19.926Z,9.13
2023-04-26T06:45:48.635Z,13.50
2023-04-26T06:48:16.379Z,10.00
2023-04-26T06:50:44.176Z,5.80
2023-04-26T06:53:13.266Z,10.87
2023-04-26T06:55:40.969Z,10.40
2023-04-26T06:58:08.865Z,10.27
2023-04-26T07:00:36.725Z,8.67
2023-04-26T07:03:04.649Z,5.87
2023-04-26T07:05:32.605Z,8.30
2023-04-26T07:08:00.366Z,5.50
2023-04-26T07:10:29.711Z,10.30
2023-04-26T07:12:57.722Z,6.07
2023-04-26T07:15:25.649Z,6.13
2023-04-26T07:17:53.495Z,9.70
2023-04-26T07:20:23.574Z,6.70
2023-04-26T07:22:51.732Z,5.00
2023-04-26T07:25:19.591Z,7.87
2023-04-26T07:27:51.593Z,5.60
2023-04-26T07:30:19.318Z,9.40
2023-04-26T07:32:47.175Z,11.77
2023-04-26T07:35:16.333Z,8.13
2023-04-26T07:37:45.031Z,6.23
2023-04-26T07:40:13.997Z,6.93
2023-04-26T07:42:41.827Z,4.53
2023-04-26T07:45:12.445Z,8.07
2023-04-26T07:47:40.197Z,6.30
2023-04-26T07:50:09.556Z,7.20
2023-04-26T07:52:37.291Z,6.13
2023-04-26T07:55:05.482Z,7.50
2023-04-26T07:57:33.242Z,7.57
2023-04-26T08:00:01.694Z,7.23
2023-04-26T08:02:43.596Z,7.03
2023-04-26T08:05:12.322Z,10.33
2023-04-26T08:07:40.362Z,7.03
2023-04-26T08:10:09.047Z,4.67
2023-04-26T08:12:38.182Z,7.13
2023-04-26T08:15:07.399Z,7.93
2023-04-26T08:17:36.876Z,9.17
2023-04-26T08:20:06.490Z,8.43
2023-04-26T08:22:34.228Z,8.37
2023-04-26T08:25:02.083Z,6.00
2023-04-26T08:27:29.926Z,6.87
2023-04-26T08:29:57.785Z,7.63
2023-04-26T08:32:25.841Z,5.63
2023-04-26T08:34:55.367Z,4.87
2023-04-26T08:37:23.635Z,8.50
2023-04-26T08:39:51.609Z,9.00
2023-04-26T08:42:19.361Z,6.60
2023-04-26T08:44:47.250Z,8.07
2023-04-26T08:47:18.196Z,7.17
2023-04-26T08:49:47.758Z,9.87
2023-04-26T08:52:22.735Z,6.47
2023-04-26T08:54:54.955Z,7.80
2023-04-26T08:57:23.599Z,4.87
2023-04-26T08:59:52.744Z,5.10
2023-04-26T09:02:22.337Z,5.50
2023-04-26T09:04:51.327Z,5.40
2023-04-26T09:07:23.354Z,6.37
2023-04-26T09:09:52.104Z,7.33
2023-04-26T09:12:21.614Z,3.87
2023-04-26T09:14:49.524Z,3.50
2023-04-26T09:17:27.744Z,4.83
2023-04-26T09:19:55.906Z,4.60
2023-04-26T09:22:33.639Z,4.70
2023-04-26T09:25:03.828Z,5.13
2023-04-26T09:27:36.356Z,4.27
2023-04-26T09:30:10.494Z,4.43
2023-04-26T09:32:47.871Z,2.60
2023-04-26T09:35:28.860Z,3.20
2023-04-26T09:38:04.725Z,3.63
2023-04-26T09:40:38.313Z,2.57
2023-04-26T09:43:08.226Z,5.33
2023-04-26T09:45:45.901Z,2.87
2023-04-26T09:48:16.610Z,2.97
2023-04-26T09:50:46.660Z,4.50
2023-04-26T09:53:34.347Z,5.67
2023-04-26T09:56:10.013Z,5.93
2023-04-26T09:58:38.718Z,4.23
2023-04-26T10:01:08.802Z,2.27
2023-04-26T10:03:37.748Z,4.17
2023-04-26T10:06:06.621Z,6.47
2023-04-26T10:08:36.545Z,8.53
2023-04-26T10:11:07.422Z,3.83
2023-04-26T10:13:36.669Z,5.57
2023-04-26T10:16:05.114Z,7.27
2023-04-26T10:18:33.664Z,3.87
2023-04-26T10:21:06.611Z,6.73
2023-04-26T10:23:36.245Z,4.17
2023-04-26T10:26:04.133Z,6.17
2023-04-26T10:29:05.295Z,2.97
2023-04-26T10:32:06.644Z,4.77
2023-04-26T10:34:36.462Z,4.07
2023-04-26T10:37:14.782Z,4.27
2023-04-26T10:39:45.047Z,4.27
2023-04-26T10:42:24.018Z,4.33
2023-04-26T10:44:52.896Z,2.93
2023-04-26T10:47:38.883Z,3.70
2023-04-26T10:50:09.248Z,2.70
2023-04-26T10:52:57.997Z,5.53
2023-04-26T10:55:39.816Z,4.27
2023-04-26T10:58:28.644Z,3.97
2023-04-26T11:01:17.765Z,4.73
2023-04-26T11:04:06.719Z,3.83
2023-04-26T11:06:49.498Z,7.40
2023-04-26T11:09:37.552Z,3.07
2023-04-26T11:12:08.223Z,2.77
2023-04-26T11:14:35.958Z,3.53
2023-04-26T11:17:08.665Z,5.07
2023-04-26T11:19:36.890Z,3.20
2023-04-26T11:22:07.682Z,5.37
2023-04-26T11:24:36.916Z,3.77
2023-04-26T11:27:11.608Z,2.53
2023-04-26T11:29:40.641Z,3.33
2023-04-26T11:32:10.879Z,2.13
2023-04-26T11:34:40.606Z,2.90
2023-04-26T11:37:09.004Z,3.97
2023-04-26T11:39:38.215Z,6.40
2023-04-26T11:42:07.124Z,4.83
2023-04-26T11:44:37.325Z,4.80
2023-04-26T11:47:06.510Z,6.43
2023-04-26T11:49:36.621Z,2.90
2023-04-26T11:52:05.246Z,2.57
2023-04-26T11:54:34.699Z,8.60
2023-04-26T11:57:16.731Z,4.17
2023-04-26T11:59:46.853Z,7.13
2023-04-26T12:02:14.834Z,2.80
2023-04-26T12:04:44.331Z,3.77
2023-04-26T12:07:12.299Z,3.80
2023-04-26T12:09:42.601Z,3.53
2023-04-26T12:12:12.174Z,5.33
2023-04-26T12:14:42.377Z,2.40
2023-04-26T12:17:11.543Z,3.23
2023-04-26T12:19:41.690Z,9.00
2023-04-26T12:22:10.145Z,4.23
2023-04-26T12:24:38.149Z,4.57
2023-04-26T12:27:07.620Z,2.90
2023-04-26T12:29:36.399Z,3.00
2023-04-26T12:32:04.755Z,4.07
2023-04-26T12:34:36.780Z,3.83
2023-04-26T12:37:05.375Z,2.87
2023-04-26T12:39:33.184Z,4.73
2023-04-26T12:42:01.712Z,4.33
2023-04-26T12:44:29.656Z,2.10
2023-04-26T12:46:57.452Z,3.83
2023-04-26T12:49:25.292Z,4.27
2023-04-26T12:51:54.582Z,4.03
2023-04-26T12:54:22.286Z,3.33
2023-04-26T12:56:50.202Z,3.00
2023-04-26T12:59:18.086Z,5.77
2023-04-26T13:01:45.835Z,4.03
2023-04-26T13:04:13.786Z,2.63
2023-04-26T13:06:41.837Z,4.97
2023-04-26T13:09:13.178Z,5.10
2023-04-26T13:11:41.224Z,6.37
2023-04-26T13:14:09.149Z,6.40
2023-04-26T13:16:39.702Z,4.83
2023-04-26T13:19:07.700Z,5.40
2023-04-26T13:21:35.562Z,7.13
2023-04-26T13:24:03.360Z,4.40
2023-04-26T13:26:32.482Z,3.63
2023-04-26T13:29:00.371Z,5.30
2023-04-26T13:31:28.443Z,5.13
2023-04-26T13:33:56.363Z,4.93
2023-04-26T13:36:24.429Z,5.03
2023-04-26T13:38:52.617Z,6.73
2023-04-26T13:41:20.517Z,3.77
2023-04-26T13:43:50.145Z,3.77
2023-04-26T13:46:17.895Z,4.33
2023-04-26T13:48:46.688Z,2.63
2023-04-26T13:51:15.364Z,4.93
2023-04-26T13:53:43.146Z,5.47
2023-04-26T13:56:11.227Z,3.50
2023-04-26T13:58:39.123Z,2.20
2023-04-26T14:01:08.330Z,2.93
2023-04-26T14:03:36.759Z,3.67
2023-04-26T14:06:05.757Z,4.40
2023-04-26T14:08:33.593Z,2.60
2023-04-26T14:11:01.678Z,3.17
2023-04-26T14:13:29.525Z,5.57
2023-04-26T14:15:57.602Z,5.40
2023-04-26T14:18:26.863Z,9.70
2023-04-26T14:20:54.654Z,14.13
2023-04-26T14:23:22.567Z,5.70
2023-04-26T14:25:52.743Z,6.97
2023-04-26T14:28:20.827Z,4.17
2023-04-26T14:30:48.630Z,5.37
2023-04-26T14:33:16.728Z,4.60
2023-04-26T14:35:46.284Z,5.60
2023-04-26T14:38:14.324Z,5.13
2023-04-26T14:40:42.268Z,9.13
2023-04-26T14:43:10.124Z,3.00
2023-04-26T14:48:12.684Z,3.37
2023-04-26T14:50:40.614Z,5.93
2023-04-26T14:53:10.370Z,5.90
2023-04-26T14:55:39.273Z,2.83
2023-04-26T14:58:07.049Z,5.00
2023-04-26T15:00:34.774Z,5.63
2023-04-26T15:03:02.771Z,7.17
2023-04-26T15:05:30.821Z,4.00
2023-04-26T15:07:58.548Z,3.40
2023-04-26T15:10:28.004Z,6.20
2023-04-26T15:12:56.398Z,5.63
2023-04-26T15:15:24.217Z,4.33
2023-04-26T15:17:52.755Z,9.50
2023-04-26T15:20:20.908Z,4.30
2023-04-26T15:22:48.924Z,4.53
2023-04-26T15:25:16.644Z,3.50
2023-04-26T15:27:47.078Z,5.93
2023-04-26T15:30:15.092Z,5.27
2023-04-26T15:32:43.127Z,5.27
2023-04-26T15:35:13.698Z,3.87
2023-04-26T15:37:41.492Z,5.97
2023-04-26T15:40:10.672Z,4.47
2023-04-26T15:42:39.014Z,5.00
2023-04-26T15:45:09.533Z,3.67
2023-04-26T15:47:37.983Z,3.37
2023-04-26T15:50:07.779Z,7.67
2023-04-26T15:52:38.610Z,4.37
2023-04-26T15:55:08.648Z,6.60
2023-04-26T15:57:36.842Z,5.07
2023-04-26T16:00:06.035Z,3.97
2023-04-26T16:02:35.301Z,5.53
2023-04-26T16:05:04.278Z,9.03
2023-04-26T16:07:32.598Z,6.57
2023-04-26T16:10:00.684Z,3.83
2023-04-26T16:12:28.543Z,6.10
2023-04-26T16:14:56.334Z,6.27
2023-04-26T16:17:24.665Z,3.83
2023-04-26T16:19:53.707Z,4.87
2023-04-26T16:22:21.564Z,5.53
2023-04-26T16:24:49.303Z,3.60
2023-04-26T16:27:17.093Z,5.33
2023-04-26T16:29:45.687Z,6.53
2023-04-26T16:32:13.364Z,5.80
2023-04-26T16:34:41.133Z,3.23
2023-04-26T16:37:10.215Z,5.07
2023-04-26T16:39:38.488Z,4.30
2023-04-26T16:42:06.440Z,3.87
2023-04-26T16:44:34.276Z,4.33
2023-04-26T16:47:02.228Z,3.90
2023-04-26T16:49:30.041Z,5.13
2023-04-26T16:51:58.920Z,3.37
2023-04-26T16:54:28.531Z,5.37
2023-04-26T16:56:56.243Z,6.70
2023-04-26T16:59:23.952Z,8.67
2023-04-26T17:01:52.136Z,6.90
2023-04-26T17:04:20.104Z,4.13
2023-04-26T17:06:47.997Z,3.23
2023-04-26T17:09:15.911Z,5.70
2023-04-26T17:11:45.050Z,2.93
2023-04-26T17:14:12.874Z,4.43
2023-04-26T17:16:40.699Z,3.87
2023-04-26T17:19:08.478Z,4.93
2023-04-26T17:21:36.681Z,3.07
2023-04-26T17:24:05.587Z,6.30
2023-04-26T17:26:33.314Z,5.87
2023-04-26T17:29:02.581Z,5.97
2023-04-26T17:31:30.460Z,5.13
2023-04-26T17:33:58.188Z,5.00
2023-04-26T17:36:26.688Z,6.90
2023-04-26T17:38:54.685Z,6.10
2023-04-26T17:41:23.739Z,6.93
2023-04-26T17:43:51.790Z,5.33
2023-04-26T17:46:20.945Z,4.97
2023-04-26T17:48:48.810Z,5.37
2023-04-26T17:51:16.577Z,7.97
2023-04-26T17:53:44.284Z,5.07
2023-04-26T17:56:12.221Z,4.43
2023-04-26T17:58:40.179Z,8.67
2023-04-26T18:01:08.065Z,5.40
2023-04-26T18:03:37.329Z,5.73
2023-04-26T18:06:05.737Z,5.77
2023-04-26T18:08:33.536Z,8.23
2023-04-26T18:11:01.199Z,5.03
2023-04-26T18:13:29.105Z,7.17
2023-04-26T18:15:57.172Z,5.80
2023-04-26T18:18:27.795Z,9.57
2023-04-26T18:20:57.269Z,7.73
2023-04-26T18:23:25.282Z,9.07
2023-04-26T18:25:56.201Z,6.07
2023-04-26T18:28:23.877Z,9.87
2023-04-26T18:30:56.837Z,8.17
2023-04-26T18:33:25.701Z,4.43
2023-04-26T18:35:53.682Z,5.37
2023-04-26T18:38:23.134Z,4.13
2023-04-26T18:40:51.412Z,4.13
2023-04-26T18:43:19.907Z,4.80
2023-04-26T18:45:48.058Z,2.57
2023-04-26T18:48:15.824Z,3.67
2023-04-26T18:50:51.152Z,5.90
2023-04-26T18:53:19.385Z,6.77
2023-04-26T18:55:49.234Z,4.40
2023-04-26T18:58:16.985Z,3.13
2023-04-26T19:00:44.723Z,3.93
2023-04-26T19:03:12.851Z,4.47
2023-04-26T19:05:42.509Z,2.07
2023-04-26T19:08:10.542Z,5.80
2023-04-26T19:10:38.398Z,3.73
2023-04-26T19:13:07.701Z,4.40
2023-04-26T19:15:36.376Z,4.07
2023-04-26T19:18:04.223Z,3.23
2023-04-26T19:20:32.736Z,4.90
2023-04-26T19:23:00.461Z,3.73
2023-04-26T19:25:30.336Z,5.43
2023-04-26T19:27:58.238Z,6.97
2023-04-26T19:30:27.447Z,3.90
2023-04-26T19:32:55.512Z,5.33
2023-04-26T19:35:23.263Z,7.83
2023-04-26T19:37:51.159Z,5.23
2023-04-26T19:40:18.967Z,2.80
2023-04-26T19:42:46.773Z,4.70
2023-04-26T19:45:14.698Z,4.43
2023-04-26T19:47:44.076Z,7.87
2023-04-26T19:50:12.790Z,2.67
2023-04-26T19:52:40.621Z,3.53
2023-04-26T19:55:10.401Z,2.97
2023-04-26T19:57:38.607Z,6.10
2023-04-26T20:00:10.269Z,5.10
2023-04-26T20:02:38.312Z,6.30
2023-04-26T20:05:09.290Z,3.77
2023-04-26T20:07:37.155Z,2.90
2023-04-26T20:10:05.349Z,3.83
2023-04-26T20:12:34.456Z,3.53
2023-04-26T20:15:02.490Z,4.20
2023-04-26T20:17:30.347Z,6.43
2023-04-26T20:19:58.179Z,4.47
2023-04-26T20:22:27.685Z,4.70
2023-04-26T20:24:55.386Z,3.20
2023-04-26T20:27:23.152Z,3.60
2023-04-26T20:29:50.998Z,5.73
2023-04-26T20:32:19.384Z,3.97
2023-04-26T20:34:47.595Z,3.90
2023-04-26T20:37:15.495Z,3.70
2023-04-26T20:39:44.812Z,4.17
2023-04-26T20:42:12.763Z,6.67
2023-04-26T20:44:40.545Z,5.77
2023-04-26T20:47:09.034Z,5.80
2023-04-26T20:49:36.889Z,3.20
2023-04-26T20:52:05.163Z,6.63
2023-04-26T20:54:33.362Z,7.60
2023-04-26T20:57:04.026Z,7.27
2023-04-26T20:59:33.950Z,4.20
2023-04-26T21:02:02.928Z,3.63
2023-04-26T21:04:30.948Z,4.13
2023-04-26T21:06:58.853Z,5.43
2023-04-26T21:09:26.677Z,7.03
2023-04-26T21:11:54.477Z,4.53
2023-04-26T21:14:23.578Z,5.80
2023-04-26T21:16:51.270Z,6.23
2023-04-26T21:19:19.023Z,5.73
2023-04-26T21:21:46.908Z,5.43
2023-04-26T21:24:14.736Z,3.53
2023-04-26T21:26:42.540Z,6.60
2023-04-26T21:29:10.448Z,3.77
2023-04-26T21:31:39.686Z,7.00
2023-04-26T21:34:07.461Z,6.13
2023-04-26T21:36:35.134Z,5.13
2023-04-26T21:39:03.510Z,5.83
2023-04-26T21:41:31.358Z,5.03
2023-04-26T21:43:59.073Z,6.90
2023-04-26T21:46:27.761Z,5.03
2023-04-26T21:48:56.872Z,4.43
2023-04-26T21:51:24.686Z,10.23
2023-04-26T21:53:52.419Z,6.13
2023-04-26T21:56:20.181Z,6.23
2023-04-26T21:58:47.890Z,5.80
2023-04-26T22:01:16.633Z,8.13
2023-04-26T22:03:44.598Z,6.83
2023-04-26T22:06:13.855Z,7.17
2023-04-26T22:08:41.891Z,9.57
2023-04-26T22:11:09.647Z,7.33
2023-04-26T22:13:37.394Z,7.60
2023-04-26T22:16:06.101Z,7.73
2023-04-26T22:18:35.047Z,7.90
2023-04-26T22:21:02.705Z,8.60
2023-04-26T22:23:32.022Z,7.50
2023-04-26T22:26:00.642Z,8.47
2023-04-26T22:28:28.471Z,8.33
2023-04-26T22:30:56.226Z,6.97
2023-04-26T22:33:23.925Z,7.67
2023-04-26T22:35:51.809Z,6.87
2023-04-26T22:38:19.520Z,6.17
2023-04-26T22:40:48.552Z,6.57
2023-04-26T22:43:16.883Z,11.20
2023-04-26T22:45:44.804Z,6.13
2023-04-26T22:48:12.754Z,7.33
2023-04-26T22:50:40.595Z,7.07
2023-04-26T22:53:09.144Z,9.43
2023-04-26T22:55:36.904Z,7.80
2023-04-26T22:58:06.039Z,4.87
2023-04-26T23:00:33.708Z,8.23
2023-04-26T23:03:01.493Z,8.30
2023-04-26T23:05:29.346Z,8.20
2023-04-26T23:07:57.104Z,7.37
2023-04-26T23:10:25.057Z,8.87
2023-04-26T23:12:52.963Z,7.10
2023-04-26T23:15:22.495Z,9.93
2023-04-26T23:17:50.468Z,5.43
2023-04-26T23:20:18.465Z,6.80
2023-04-26T23:22:46.256Z,8.70
2023-04-26T23:25:14.074Z,5.83
2023-04-26T23:27:42.010Z,5.63
2023-04-26T23:30:10.768Z,8.87
2023-04-26T23:32:39.976Z,7.77
2023-04-26T23:35:08.735Z,11.83
2023-04-26T23:37:36.477Z,6.50
2023-04-26T23:40:06.035Z,6.10
2023-04-26T23:42:33.775Z,4.90
2023-04-26T23:45:01.768Z,5.20
2023-04-26T23:47:30.081Z,7.47
2023-04-26T23:49:59.446Z,7.40
2023-04-26T23:52:27.576Z,6.97
2023-04-26T23:54:55.271Z,10.37
2023-04-26T23:57:23.031Z,12.30
2023-04-26T23:59:52.577Z,5.03
